sensor_id;sensor_type;location;lat;lon;timestamp;P1;durP1;ratioP1;P2;durP2;ratioP2
46487;SDS011;32202;48.780;9.204;2022-10-17T00:00:22;67.65;;;43.95;;
46487;SDS011;32202;48.780;9.204;2022-10-17T00:02:47;46.42;;;30.65;;
46487;SDS011;32202;48.780;9.204;2022-10-17T00:05:13;31.08;;;21.38;;
46487;SDS011;32202;48.780;9.204;2022-10-17T00:07:39;17.23;;;10.70;;
46487;SDS011;32202;48.780;9.204;2022-10-17T00:10:05;10.15;;;5.22;;
46487;SDS011;32202;48.780;9.204;2022-10-17T00:12:31;8.07;;;3.78;;
46487;SDS011;32202;48.780;9.204;2022-10-17T00:14:57;7.55;;;4.85;;
46487;SDS011;32202;48.780;9.204;2022-10-17T00:17:23;22.98;;;14.23;;
46487;SDS011;32202;48.780;9.204;2022-10-17T00:19:48;13.43;;;7.90;;
46487;SDS011;32202;48.780;9.204;2022-10-17T00:22:14;24.25;;;13.80;;
46487;SDS011;32202;48.780;9.204;2022-10-17T00:24:40;22.98;;;12.93;;
46487;SDS011;32202;48.780;9.204;2022-10-17T00:27:05;47.88;;;29.90;;
46487;SDS011;32202;48.780;9.204;2022-10-17T00:29:31;32.28;;;19.73;;
46487;SDS011;32202;48.780;9.204;2022-10-17T00:31:57;18.77;;;9.30;;
46487;SDS011;32202;48.780;9.204;2022-10-17T00:34:23;17.60;;;8.23;;
46487;SDS011;32202;48.780;9.204;2022-10-17T00:36:48;28.80;;;14.40;;
46487;SDS011;32202;48.780;9.204;2022-10-17T00:39:14;34.55;;;21.17;;
46487;SDS011;32202;48.780;9.204;2022-10-17T00:41:40;97.68;;;59.35;;
46487;SDS011;32202;48.780;9.204;2022-10-17T00:44:53;45.58;;;28.40;;
46487;SDS011;32202;48.780;9.204;2022-10-17T00:46:54;39.88;;;24.92;;
46487;SDS011;32202;48.780;9.204;2022-10-17T00:49:21;185.77;;;114.85;;
46487;SDS011;32202;48.780;9.204;2022-10-17T00:51:54;196.00;;;120.30;;
46487;SDS011;32202;48.780;9.204;2022-10-17T00:54:24;146.93;;;92.72;;
46487;SDS011;32202;48.780;9.204;2022-10-17T00:59:19;26.90;;;15.55;;
46487;SDS011;32202;48.780;9.204;2022-10-17T01:01:51;30.95;;;18.52;;
46487;SDS011;32202;48.780;9.204;2022-10-17T01:04:24;197.10;;;123.15;;
46487;SDS011;32202;48.780;9.204;2022-10-17T01:06:50;57.20;;;35.53;;
46487;SDS011;32202;48.780;9.204;2022-10-17T01:09:15;28.15;;;18.35;;
46487;SDS011;32202;48.780;9.204;2022-10-17T01:16:51;71.97;;;45.85;;
46487;SDS011;32202;48.780;9.204;2022-10-17T01:22:18;56.90;;;34.70;;
46487;SDS011;32202;48.780;9.204;2022-10-17T01:32:38;146.43;;;86.95;;
46487;SDS011;32202;48.780;9.204;2022-10-17T01:35:12;216.23;;;133.85;;
46487;SDS011;32202;48.780;9.204;2022-10-17T01:37:52;73.10;;;45.30;;
46487;SDS011;32202;48.780;9.204;2022-10-17T01:40:36;149.75;;;93.82;;
46487;SDS011;32202;48.780;9.204;2022-10-17T01:43:23;15.38;;;8.80;;
46487;SDS011;32202;48.780;9.204;2022-10-17T01:46:00;43.42;;;27.70;;
46487;SDS011;32202;48.780;9.204;2022-10-17T01:48:41;83.55;;;49.92;;
46487;SDS011;32202;48.780;9.204;2022-10-17T01:51:22;107.32;;;67.45;;
46487;SDS011;32202;48.780;9.204;2022-10-17T01:54:01;100.97;;;58.40;;
46487;SDS011;32202;48.780;9.204;2022-10-17T01:56:47;55.20;;;33.05;;
46487;SDS011;32202;48.780;9.204;2022-10-17T01:59:19;74.13;;;44.22;;
46487;SDS011;32202;48.780;9.204;2022-10-17T02:01:49;64.60;;;40.80;;
46487;SDS011;32202;48.780;9.204;2022-10-17T02:04:17;59.08;;;37.97;;
46487;SDS011;32202;48.780;9.204;2022-10-17T02:06:43;56.00;;;36.60;;
46487;SDS011;32202;48.780;9.204;2022-10-17T02:09:24;110.22;;;65.60;;
46487;SDS011;32202;48.780;9.204;2022-10-17T02:11:53;67.15;;;41.05;;
46487;SDS011;32202;48.780;9.204;2022-10-17T02:22:45;28.08;;;17.50;;
46487;SDS011;32202;48.780;9.204;2022-10-17T02:28:20;50.95;;;30.20;;
46487;SDS011;32202;48.780;9.204;2022-10-17T02:30:59;16.98;;;6.55;;
46487;SDS011;32202;48.780;9.204;2022-10-17T02:33:30;13.00;;;6.97;;
46487;SDS011;32202;48.780;9.204;2022-10-17T02:36:02;15.38;;;9.32;;
46487;SDS011;32202;48.780;9.204;2022-10-17T02:38:33;20.50;;;6.38;;
46487;SDS011;32202;48.780;9.204;2022-10-17T02:40:59;9.00;;;5.28;;
46487;SDS011;32202;48.780;9.204;2022-10-17T02:43:25;10.07;;;5.28;;
46487;SDS011;32202;48.780;9.204;2022-10-17T02:45:52;10.32;;;4.97;;
46487;SDS011;32202;48.780;9.204;2022-10-17T02:48:35;7.53;;;3.33;;
46487;SDS011;32202;48.780;9.204;2022-10-17T02:56:16;6.78;;;4.07;;
46487;SDS011;32202;48.780;9.204;2022-10-17T02:58:49;7.82;;;4.00;;
46487;SDS011;32202;48.780;9.204;2022-10-17T03:01:19;7.45;;;3.80;;
46487;SDS011;32202;48.780;9.204;2022-10-17T03:03:46;7.00;;;4.38;;
46487;SDS011;32202;48.780;9.204;2022-10-17T03:06:11;5.13;;;3.67;;
46487;SDS011;32202;48.780;9.204;2022-10-17T03:08:37;8.48;;;3.83;;
46487;SDS011;32202;48.780;9.204;2022-10-17T03:11:02;5.47;;;3.53;;
46487;SDS011;32202;48.780;9.204;2022-10-17T03:13:28;7.53;;;4.10;;
46487;SDS011;32202;48.780;9.204;2022-10-17T03:15:57;7.25;;;3.67;;
46487;SDS011;32202;48.780;9.204;2022-10-17T03:18:22;10.52;;;4.75;;
46487;SDS011;32202;48.780;9.204;2022-10-17T03:20:48;8.05;;;3.97;;
46487;SDS011;32202;48.780;9.204;2022-10-17T03:23:14;8.60;;;3.67;;
46487;SDS011;32202;48.780;9.204;2022-10-17T03:25:40;8.93;;;3.95;;
46487;SDS011;32202;48.780;9.204;2022-10-17T03:28:06;8.15;;;4.18;;
46487;SDS011;32202;48.780;9.204;2022-10-17T03:30:32;8.40;;;4.28;;
46487;SDS011;32202;48.780;9.204;2022-10-17T03:32:57;7.68;;;4.65;;
46487;SDS011;32202;48.780;9.204;2022-10-17T03:35:23;22.90;;;12.55;;
46487;SDS011;32202;48.780;9.204;2022-10-17T03:37:50;9.20;;;5.47;;
46487;SDS011;32202;48.780;9.204;2022-10-17T03:40:15;8.35;;;4.97;;
46487;SDS011;32202;48.780;9.204;2022-10-17T03:42:41;9.70;;;4.40;;
46487;SDS011;32202;48.780;9.204;2022-10-17T03:45:07;7.13;;;4.50;;
46487;SDS011;32202;48.780;9.204;2022-10-17T03:47:33;12.32;;;7.80;;
46487;SDS011;32202;48.780;9.204;2022-10-17T03:49:59;14.18;;;8.65;;
46487;SDS011;32202;48.780;9.204;2022-10-17T03:52:24;5.97;;;3.90;;
46487;SDS011;32202;48.780;9.204;2022-10-17T03:54:50;7.97;;;3.85;;
46487;SDS011;32202;48.780;9.204;2022-10-17T03:57:16;9.38;;;4.78;;
46487;SDS011;32202;48.780;9.204;2022-10-17T03:59:42;10.85;;;5.25;;
46487;SDS011;32202;48.780;9.204;2022-10-17T04:02:07;7.22;;;3.83;;
46487;SDS011;32202;48.780;9.204;2022-10-17T04:04:34;6.10;;;4.20;;
46487;SDS011;32202;48.780;9.204;2022-10-17T04:06:59;8.55;;;4.65;;
46487;SDS011;32202;48.780;9.204;2022-10-17T04:09:25;12.70;;;4.80;;
46487;SDS011;32202;48.780;9.204;2022-10-17T04:11:50;23.30;;;8.02;;
46487;SDS011;32202;48.780;9.204;2022-10-17T04:14:16;20.90;;;6.95;;
46487;SDS011;32202;48.780;9.204;2022-10-17T04:16:41;11.30;;;4.88;;
46487;SDS011;32202;48.780;9.204;2022-10-17T04:19:09;8.00;;;4.22;;
46487;SDS011;32202;48.780;9.204;2022-10-17T04:21:37;8.33;;;4.30;;
46487;SDS011;32202;48.780;9.204;2022-10-17T04:24:02;12.13;;;4.93;;
46487;SDS011;32202;48.780;9.204;2022-10-17T04:26:28;6.18;;;3.78;;
46487;SDS011;32202;48.780;9.204;2022-10-17T04:28:54;9.32;;;4.30;;
46487;SDS011;32202;48.780;9.204;2022-10-17T04:31:19;10.57;;;5.95;;
46487;SDS011;32202;48.780;9.204;2022-10-17T04:33:45;8.95;;;3.85;;
46487;SDS011;32202;48.780;9.204;2022-10-17T04:36:12;6.38;;;3.72;;
46487;SDS011;32202;48.780;9.204;2022-10-17T04:38:39;8.25;;;4.20;;
46487;SDS011;32202;48.780;9.204;2022-10-17T04:41:12;9.05;;;4.50;;
46487;SDS011;32202;48.780;9.204;2022-10-17T04:43:39;7.25;;;4.10;;
46487;SDS011;32202;48.780;9.204;2022-10-17T04:46:07;12.88;;;4.53;;
46487;SDS011;32202;48.780;9.204;2022-10-17T04:48:37;7.38;;;3.78;;
46487;SDS011;32202;48.780;9.204;2022-10-17T04:51:04;5.97;;;3.72;;
46487;SDS011;32202;48.780;9.204;2022-10-17T04:53:33;13.93;;;7.65;;
46487;SDS011;32202;48.780;9.204;2022-10-17T04:55:59;7.47;;;4.72;;
46487;SDS011;32202;48.780;9.204;2022-10-17T04:58:29;11.73;;;6.28;;
46487;SDS011;32202;48.780;9.204;2022-10-17T05:00:55;12.45;;;6.47;;
46487;SDS011;32202;48.780;9.204;2022-10-17T05:03:20;12.05;;;6.72;;
46487;SDS011;32202;48.780;9.204;2022-10-17T05:05:46;10.93;;;5.72;;
46487;SDS011;32202;48.780;9.204;2022-10-17T05:08:12;7.78;;;4.80;;
46487;SDS011;32202;48.780;9.204;2022-10-17T05:10:38;11.10;;;4.60;;
46487;SDS011;32202;48.780;9.204;2022-10-17T05:13:05;11.50;;;7.50;;
46487;SDS011;32202;48.780;9.204;2022-10-17T05:15:31;12.32;;;4.50;;
46487;SDS011;32202;48.780;9.204;2022-10-17T05:17:57;7.78;;;4.10;;
46487;SDS011;32202;48.780;9.204;2022-10-17T05:20:22;7.53;;;4.07;;
46487;SDS011;32202;48.780;9.204;2022-10-17T05:22:48;7.18;;;4.10;;
46487;SDS011;32202;48.780;9.204;2022-10-17T05:25:14;7.50;;;3.88;;
46487;SDS011;32202;48.780;9.204;2022-10-17T05:27:40;7.57;;;4.15;;
46487;SDS011;32202;48.780;9.204;2022-10-17T05:30:05;7.88;;;4.47;;
46487;SDS011;32202;48.780;9.204;2022-10-17T05:32:32;12.70;;;5.15;;
46487;SDS011;32202;48.780;9.204;2022-10-17T05:34:58;8.48;;;5.47;;
46487;SDS011;32202;48.780;9.204;2022-10-17T05:37:23;10.50;;;4.65;;
46487;SDS011;32202;48.780;9.204;2022-10-17T05:39:49;10.73;;;6.07;;
46487;SDS011;32202;48.780;9.204;2022-10-17T05:42:15;7.90;;;5.18;;
46487;SDS011;32202;48.780;9.204;2022-10-17T05:44:40;10.32;;;4.68;;
46487;SDS011;32202;48.780;9.204;2022-10-17T05:47:09;9.52;;;4.60;;
46487;SDS011;32202;48.780;9.204;2022-10-17T05:49:35;7.18;;;4.35;;
46487;SDS011;32202;48.780;9.204;2022-10-17T05:52:01;8.02;;;4.35;;
46487;SDS011;32202;48.780;9.204;2022-10-17T05:54:26;10.50;;;5.05;;
46487;SDS011;32202;48.780;9.204;2022-10-17T05:56:52;7.88;;;4.07;;
46487;SDS011;32202;48.780;9.204;2022-10-17T05:59:19;8.60;;;4.43;;
46487;SDS011;32202;48.780;9.204;2022-10-17T06:01:45;8.70;;;4.68;;
46487;SDS011;32202;48.780;9.204;2022-10-17T06:04:11;13.88;;;5.45;;
46487;SDS011;32202;48.780;9.204;2022-10-17T06:06:37;10.55;;;5.30;;
46487;SDS011;32202;48.780;9.204;2022-10-17T06:09:04;14.50;;;7.05;;
46487;SDS011;32202;48.780;9.204;2022-10-17T06:11:29;11.80;;;6.10;;
46487;SDS011;32202;48.780;9.204;2022-10-17T06:13:55;9.55;;;5.07;;
46487;SDS011;32202;48.780;9.204;2022-10-17T06:16:21;19.73;;;12.68;;
46487;SDS011;32202;48.780;9.204;2022-10-17T06:18:46;54.15;;;33.38;;
46487;SDS011;32202;48.780;9.204;2022-10-17T06:21:13;36.65;;;21.35;;
46487;SDS011;32202;48.780;9.204;2022-10-17T06:23:41;10.35;;;6.57;;
46487;SDS011;32202;48.780;9.204;2022-10-17T06:26:07;43.58;;;29.33;;
46487;SDS011;32202;48.780;9.204;2022-10-17T06:28:33;14.70;;;7.97;;
46487;SDS011;32202;48.780;9.204;2022-10-17T06:31:03;35.67;;;19.13;;
46487;SDS011;32202;48.780;9.204;2022-10-17T06:33:30;33.25;;;19.65;;
46487;SDS011;32202;48.780;9.204;2022-10-17T06:35:56;16.65;;;9.32;;
46487;SDS011;32202;48.780;9.204;2022-10-17T06:38:22;32.55;;;17.45;;
46487;SDS011;32202;48.780;9.204;2022-10-17T06:40:47;24.92;;;14.13;;
46487;SDS011;32202;48.780;9.204;2022-10-17T06:43:13;19.13;;;6.40;;
46487;SDS011;32202;48.780;9.204;2022-10-17T06:45:39;11.93;;;5.22;;
46487;SDS011;32202;48.780;9.204;2022-10-17T06:48:05;10.63;;;6.05;;
46487;SDS011;32202;48.780;9.204;2022-10-17T06:50:31;25.58;;;10.25;;
46487;SDS011;32202;48.780;9.204;2022-10-17T06:52:57;18.75;;;9.25;;
46487;SDS011;32202;48.780;9.204;2022-10-17T06:55:23;30.55;;;17.75;;
46487;SDS011;32202;48.780;9.204;2022-10-17T06:57:48;33.50;;;19.50;;
46487;SDS011;32202;48.780;9.204;2022-10-17T07:00:15;14.27;;;6.43;;
46487;SDS011;32202;48.780;9.204;2022-10-17T07:02:41;9.88;;;5.22;;
46487;SDS011;32202;48.780;9.204;2022-10-17T07:05:07;11.73;;;5.97;;
46487;SDS011;32202;48.780;9.204;2022-10-17T07:07:33;12.02;;;6.90;;
46487;SDS011;32202;48.780;9.204;2022-10-17T07:09:59;12.98;;;6.00;;
46487;SDS011;32202;48.780;9.204;2022-10-17T07:12:25;15.32;;;5.65;;
46487;SDS011;32202;48.780;9.204;2022-10-17T07:14:51;12.07;;;5.57;;
46487;SDS011;32202;48.780;9.204;2022-10-17T07:17:16;11.07;;;5.60;;
46487;SDS011;32202;48.780;9.204;2022-10-17T07:19:43;11.95;;;5.13;;
46487;SDS011;32202;48.780;9.204;2022-10-17T07:22:08;15.45;;;7.00;;
46487;SDS011;32202;48.780;9.204;2022-10-17T07:24:35;24.40;;;14.65;;
46487;SDS011;32202;48.780;9.204;2022-10-17T07:27:01;12.27;;;5.68;;
46487;SDS011;32202;48.780;9.204;2022-10-17T07:29:26;9.68;;;6.50;;
46487;SDS011;32202;48.780;9.204;2022-10-17T07:31:52;38.30;;;24.67;;
46487;SDS011;32202;48.780;9.204;2022-10-17T07:34:18;13.77;;;7.60;;
46487;SDS011;32202;48.780;9.204;2022-10-17T07:36:44;11.82;;;6.45;;
46487;SDS011;32202;48.780;9.204;2022-10-17T07:39:09;12.90;;;4.03;;
46487;SDS011;32202;48.780;9.204;2022-10-17T07:41:35;8.82;;;3.38;;
46487;SDS011;32202;48.780;9.204;2022-10-17T07:44:01;11.77;;;3.60;;
46487;SDS011;32202;48.780;9.204;2022-10-17T07:46:31;9.25;;;2.92;;
46487;SDS011;32202;48.780;9.204;2022-10-17T07:48:56;10.43;;;4.70;;
46487;SDS011;32202;48.780;9.204;2022-10-17T07:51:22;8.25;;;3.70;;
46487;SDS011;32202;48.780;9.204;2022-10-17T07:53:48;36.60;;;23.08;;
46487;SDS011;32202;48.780;9.204;2022-10-17T07:56:14;14.65;;;7.25;;
46487;SDS011;32202;48.780;9.204;2022-10-17T07:58:40;12.65;;;7.75;;
46487;SDS011;32202;48.780;9.204;2022-10-17T08:01:07;65.65;;;49.92;;
46487;SDS011;32202;48.780;9.204;2022-10-17T08:03:39;19.52;;;12.45;;
46487;SDS011;32202;48.780;9.204;2022-10-17T08:06:05;34.85;;;26.75;;
46487;SDS011;32202;48.780;9.204;2022-10-17T08:08:31;28.73;;;22.25;;
46487;SDS011;32202;48.780;9.204;2022-10-17T08:11:01;9.27;;;6.25;;
46487;SDS011;32202;48.780;9.204;2022-10-17T08:13:29;9.18;;;4.80;;
46487;SDS011;32202;48.780;9.204;2022-10-17T08:15:57;14.95;;;2.92;;
46487;SDS011;32202;48.780;9.204;2022-10-17T08:18:24;4.63;;;2.70;;
46487;SDS011;32202;48.780;9.204;2022-10-17T08:20:50;7.75;;;2.67;;
46487;SDS011;32202;48.780;9.204;2022-10-17T08:23:16;7.65;;;3.10;;
46487;SDS011;32202;48.780;9.204;2022-10-17T08:25:42;11.77;;;7.28;;
46487;SDS011;32202;48.780;9.204;2022-10-17T08:28:08;8.15;;;3.10;;
46487;SDS011;32202;48.780;9.204;2022-10-17T08:30:34;9.80;;;4.05;;
46487;SDS011;32202;48.780;9.204;2022-10-17T08:33:00;9.70;;;2.90;;
46487;SDS011;32202;48.780;9.204;2022-10-17T08:35:26;5.90;;;3.22;;
46487;SDS011;32202;48.780;9.204;2022-10-17T08:37:52;8.07;;;3.97;;
46487;SDS011;32202;48.780;9.204;2022-10-17T08:40:19;6.45;;;2.58;;
46487;SDS011;32202;48.780;9.204;2022-10-17T08:45:41;8.73;;;2.80;;
46487;SDS011;32202;48.780;9.204;2022-10-17T08:48:17;8.43;;;2.90;;
46487;SDS011;32202;48.780;9.204;2022-10-17T08:50:48;7.05;;;2.58;;
46487;SDS011;32202;48.780;9.204;2022-10-17T08:56:04;6.80;;;2.65;;
46487;SDS011;32202;48.780;9.204;2022-10-17T08:58:38;6.15;;;2.75;;
46487;SDS011;32202;48.780;9.204;2022-10-17T09:01:06;7.05;;;2.15;;
46487;SDS011;32202;48.780;9.204;2022-10-17T09:06:51;11.38;;;3.00;;
46487;SDS011;32202;48.780;9.204;2022-10-17T09:18:19;9.38;;;3.55;;
46487;SDS011;32202;48.780;9.204;2022-10-17T09:20:53;4.35;;;2.20;;
46487;SDS011;32202;48.780;9.204;2022-10-17T09:23:26;4.13;;;3.08;;
46487;SDS011;32202;48.780;9.204;2022-10-17T09:26:00;5.30;;;2.65;;
46487;SDS011;32202;48.780;9.204;2022-10-17T09:28:33;6.25;;;2.60;;
46487;SDS011;32202;48.780;9.204;2022-10-17T09:31:23;6.07;;;2.40;;
46487;SDS011;32202;48.780;9.204;2022-10-17T09:33:49;5.35;;;2.55;;
46487;SDS011;32202;48.780;9.204;2022-10-17T09:36:20;6.57;;;2.30;;
46487;SDS011;32202;48.780;9.204;2022-10-17T09:38:52;8.82;;;2.70;;
46487;SDS011;32202;48.780;9.204;2022-10-17T09:41:23;8.95;;;2.60;;
46487;SDS011;32202;48.780;9.204;2022-10-17T09:43:57;5.93;;;2.47;;
46487;SDS011;32202;48.780;9.204;2022-10-17T09:46:33;8.23;;;2.45;;
46487;SDS011;32202;48.780;9.204;2022-10-17T09:49:02;7.25;;;2.50;;
46487;SDS011;32202;48.780;9.204;2022-10-17T09:51:34;6.43;;;1.88;;
46487;SDS011;32202;48.780;9.204;2022-10-17T09:54:02;5.70;;;2.30;;
46487;SDS011;32202;48.780;9.204;2022-10-17T09:56:52;5.65;;;2.40;;
46487;SDS011;32202;48.780;9.204;2022-10-17T09:59:36;6.97;;;3.08;;
46487;SDS011;32202;48.780;9.204;2022-10-17T10:02:18;8.07;;;4.45;;
46487;SDS011;32202;48.780;9.204;2022-10-17T10:04:55;5.53;;;2.30;;
46487;SDS011;32202;48.780;9.204;2022-10-17T10:07:40;7.07;;;2.53;;
46487;SDS011;32202;48.780;9.204;2022-10-17T10:10:07;4.72;;;2.17;;
46487;SDS011;32202;48.780;9.204;2022-10-17T10:15:40;7.43;;;2.85;;
46487;SDS011;32202;48.780;9.204;2022-10-17T10:21:12;7.93;;;2.88;;
46487;SDS011;32202;48.780;9.204;2022-10-17T10:24:29;9.65;;;5.07;;
46487;SDS011;32202;48.780;9.204;2022-10-17T10:26:48;10.02;;;5.25;;
46487;SDS011;32202;48.780;9.204;2022-10-17T10:31:46;12.18;;;5.68;;
46487;SDS011;32202;48.780;9.204;2022-10-17T10:34:17;10.98;;;4.30;;
46487;SDS011;32202;48.780;9.204;2022-10-17T10:42:20;9.50;;;2.83;;
46487;SDS011;32202;48.780;9.204;2022-10-17T10:49:43;11.50;;;3.33;;
46487;SDS011;32202;48.780;9.204;2022-10-17T10:52:11;6.03;;;4.18;;
46487;SDS011;32202;48.780;9.204;2022-10-17T10:55:13;6.78;;;2.53;;
46487;SDS011;32202;48.780;9.204;2022-10-17T10:57:47;5.47;;;1.65;;
46487;SDS011;32202;48.780;9.204;2022-10-17T11:00:17;8.80;;;6.38;;
46487;SDS011;32202;48.780;9.204;2022-10-17T11:05:39;4.20;;;1.83;;
46487;SDS011;32202;48.780;9.204;2022-10-17T11:13:41;3.75;;;1.38;;
46487;SDS011;32202;48.780;9.204;2022-10-17T11:19:04;5.30;;;3.30;;
46487;SDS011;32202;48.780;9.204;2022-10-17T11:21:47;15.57;;;6.82;;
46487;SDS011;32202;48.780;9.204;2022-10-17T11:24:23;2.38;;;1.30;;
46487;SDS011;32202;48.780;9.204;2022-10-17T11:29:28;9.02;;;5.55;;
46487;SDS011;32202;48.780;9.204;2022-10-17T11:31:59;3.95;;;1.90;;
46487;SDS011;32202;48.780;9.204;2022-10-17T11:34:30;3.53;;;1.60;;
46487;SDS011;32202;48.780;9.204;2022-10-17T11:37:10;3.92;;;1.63;;
46487;SDS011;32202;48.780;9.204;2022-10-17T11:43:01;3.28;;;1.27;;
46487;SDS011;32202;48.780;9.204;2022-10-17T11:45:14;4.32;;;1.98;;
46487;SDS011;32202;48.780;9.204;2022-10-17T11:47:44;4.10;;;1.50;;
46487;SDS011;32202;48.780;9.204;2022-10-17T11:52:52;4.05;;;3.30;;
46487;SDS011;32202;48.780;9.204;2022-10-17T11:55:38;5.68;;;2.55;;
46487;SDS011;32202;48.780;9.204;2022-10-17T12:01:43;2.55;;;1.20;;
46487;SDS011;32202;48.780;9.204;2022-10-17T12:07:37;3.95;;;1.20;;
46487;SDS011;32202;48.780;9.204;2022-10-17T12:12:42;5.00;;;2.10;;
46487;SDS011;32202;48.780;9.204;2022-10-17T12:17:45;3.78;;;2.60;;
46487;SDS011;32202;48.780;9.204;2022-10-17T12:20:28;2.70;;;1.80;;
46487;SDS011;32202;48.780;9.204;2022-10-17T12:25:28;4.00;;;2.65;;
46487;SDS011;32202;48.780;9.204;2022-10-17T12:28:03;2.17;;;1.50;;
46487;SDS011;32202;48.780;9.204;2022-10-17T12:31:08;4.32;;;2.05;;
46487;SDS011;32202;48.780;9.204;2022-10-17T12:44:44;3.53;;;1.50;;
46487;SDS011;32202;48.780;9.204;2022-10-17T12:54:53;10.90;;;6.05;;
46487;SDS011;32202;48.780;9.204;2022-10-17T13:00:36;12.82;;;7.15;;
46487;SDS011;32202;48.780;9.204;2022-10-17T13:03:11;6.88;;;3.38;;
46487;SDS011;32202;48.780;9.204;2022-10-17T13:06:11;2.75;;;1.23;;
46487;SDS011;32202;48.780;9.204;2022-10-17T13:08:44;5.75;;;1.63;;
46487;SDS011;32202;48.780;9.204;2022-10-17T13:11:13;11.02;;;3.65;;
46487;SDS011;32202;48.780;9.204;2022-10-17T13:13:46;11.10;;;7.35;;
46487;SDS011;32202;48.780;9.204;2022-10-17T13:16:26;3.22;;;1.80;;
46487;SDS011;32202;48.780;9.204;2022-10-17T13:18:57;65.28;;;58.47;;
46487;SDS011;32202;48.780;9.204;2022-10-17T13:21:24;22.77;;;19.67;;
46487;SDS011;32202;48.780;9.204;2022-10-17T13:23:50;8.02;;;4.82;;
46487;SDS011;32202;48.780;9.204;2022-10-17T13:26:21;10.60;;;6.63;;
46487;SDS011;32202;48.780;9.204;2022-10-17T13:33:59;11.57;;;6.43;;
46487;SDS011;32202;48.780;9.204;2022-10-17T13:36:26;10.80;;;6.32;;
46487;SDS011;32202;48.780;9.204;2022-10-17T13:38:54;7.43;;;4.95;;
46487;SDS011;32202;48.780;9.204;2022-10-17T13:41:23;6.47;;;3.90;;
46487;SDS011;32202;48.780;9.204;2022-10-17T13:43:51;8.30;;;3.55;;
46487;SDS011;32202;48.780;9.204;2022-10-17T13:46:26;7.78;;;4.35;;
46487;SDS011;32202;48.780;9.204;2022-10-17T13:48:54;5.53;;;2.88;;
46487;SDS011;32202;48.780;9.204;2022-10-17T13:51:24;4.53;;;2.53;;
46487;SDS011;32202;48.780;9.204;2022-10-17T13:53:51;7.07;;;4.28;;
46487;SDS011;32202;48.780;9.204;2022-10-17T13:56:23;4.03;;;1.95;;
46487;SDS011;32202;48.780;9.204;2022-10-17T13:58:51;3.80;;;2.25;;
46487;SDS011;32202;48.780;9.204;2022-10-17T14:01:28;4.90;;;2.88;;
46487;SDS011;32202;48.780;9.204;2022-10-17T14:03:55;4.05;;;1.65;;
46487;SDS011;32202;48.780;9.204;2022-10-17T14:06:24;3.45;;;1.95;;
46487;SDS011;32202;48.780;9.204;2022-10-17T14:09:25;3.50;;;1.90;;
46487;SDS011;32202;48.780;9.204;2022-10-17T14:11:55;4.13;;;1.45;;
46487;SDS011;32202;48.780;9.204;2022-10-17T14:14:32;4.45;;;1.90;;
46487;SDS011;32202;48.780;9.204;2022-10-17T14:16:58;4.32;;;1.40;;
46487;SDS011;32202;48.780;9.204;2022-10-17T14:19:25;2.90;;;1.52;;
46487;SDS011;32202;48.780;9.204;2022-10-17T14:21:54;3.13;;;1.70;;
46487;SDS011;32202;48.780;9.204;2022-10-17T14:24:38;3.80;;;1.95;;
46487;SDS011;32202;48.780;9.204;2022-10-17T14:30:05;6.80;;;2.40;;
46487;SDS011;32202;48.780;9.204;2022-10-17T14:33:02;4.75;;;2.20;;
46487;SDS011;32202;48.780;9.204;2022-10-17T14:37:58;6.55;;;2.33;;
46487;SDS011;32202;48.780;9.204;2022-10-17T14:40:26;5.93;;;2.83;;
46487;SDS011;32202;48.780;9.204;2022-10-17T14:42:54;6.22;;;2.38;;
46487;SDS011;32202;48.780;9.204;2022-10-17T14:45:24;7.80;;;3.17;;
46487;SDS011;32202;48.780;9.204;2022-10-17T14:48:06;6.93;;;2.60;;
46487;SDS011;32202;48.780;9.204;2022-10-17T14:50:38;6.38;;;1.92;;
46487;SDS011;32202;48.780;9.204;2022-10-17T14:53:18;4.30;;;2.53;;
46487;SDS011;32202;48.780;9.204;2022-10-17T14:55:55;8.25;;;3.78;;
46487;SDS011;32202;48.780;9.204;2022-10-17T14:58:26;19.90;;;13.43;;
46487;SDS011;32202;48.780;9.204;2022-10-17T15:00:54;12.60;;;6.68;;
46487;SDS011;32202;48.780;9.204;2022-10-17T15:03:20;7.93;;;4.05;;
46487;SDS011;32202;48.780;9.204;2022-10-17T15:05:46;5.15;;;3.20;;
46487;SDS011;32202;48.780;9.204;2022-10-17T15:08:14;7.03;;;3.35;;
46487;SDS011;32202;48.780;9.204;2022-10-17T15:10:41;9.25;;;5.30;;
46487;SDS011;32202;48.780;9.204;2022-10-17T15:13:08;9.02;;;4.82;;
46487;SDS011;32202;48.780;9.204;2022-10-17T15:15:35;5.30;;;2.95;;
46487;SDS011;32202;48.780;9.204;2022-10-17T15:18:02;10.85;;;2.65;;
46487;SDS011;32202;48.780;9.204;2022-10-17T15:20:28;12.45;;;9.55;;
46487;SDS011;32202;48.780;9.204;2022-10-17T15:22:55;15.82;;;11.05;;
46487;SDS011;32202;48.780;9.204;2022-10-17T15:25:23;16.45;;;10.95;;
46487;SDS011;32202;48.780;9.204;2022-10-17T15:27:49;18.42;;;13.63;;
46487;SDS011;32202;48.780;9.204;2022-10-17T15:30:17;14.82;;;8.15;;
46487;SDS011;32202;48.780;9.204;2022-10-17T15:32:48;6.90;;;3.03;;
46487;SDS011;32202;48.780;9.204;2022-10-17T15:35:15;10.60;;;4.55;;
46487;SDS011;32202;48.780;9.204;2022-10-17T15:37:41;6.82;;;3.90;;
46487;SDS011;32202;48.780;9.204;2022-10-17T15:40:11;8.55;;;3.63;;
46487;SDS011;32202;48.780;9.204;2022-10-17T15:42:42;5.35;;;3.13;;
46487;SDS011;32202;48.780;9.204;2022-10-17T15:45:11;7.70;;;3.65;;
46487;SDS011;32202;48.780;9.204;2022-10-17T15:47:42;7.13;;;3.20;;
46487;SDS011;32202;48.780;9.204;2022-10-17T15:50:13;5.72;;;3.40;;
46487;SDS011;32202;48.780;9.204;2022-10-17T15:52:40;6.72;;;3.45;;
46487;SDS011;32202;48.780;9.204;2022-10-17T15:55:06;6.97;;;3.13;;
46487;SDS011;32202;48.780;9.204;2022-10-17T15:57:33;5.72;;;2.95;;
46487;SDS011;32202;48.780;9.204;2022-10-17T16:00:03;13.88;;;4.40;;
46487;SDS011;32202;48.780;9.204;2022-10-17T16:02:30;7.38;;;3.17;;
46487;SDS011;32202;48.780;9.204;2022-10-17T16:04:57;6.28;;;3.35;;
46487;SDS011;32202;48.780;9.204;2022-10-17T16:07:23;5.93;;;2.80;;
46487;SDS011;32202;48.780;9.204;2022-10-17T16:09:49;9.90;;;3.22;;
46487;SDS011;32202;48.780;9.204;2022-10-17T16:12:16;9.15;;;3.80;;
46487;SDS011;32202;48.780;9.204;2022-10-17T16:14:44;8.43;;;3.88;;
46487;SDS011;32202;48.780;9.204;2022-10-17T16:17:12;10.85;;;5.07;;
46487;SDS011;32202;48.780;9.204;2022-10-17T16:19:41;12.43;;;3.95;;
46487;SDS011;32202;48.780;9.204;2022-10-17T16:22:10;8.20;;;3.10;;
46487;SDS011;32202;48.780;9.204;2022-10-17T16:24:55;7.07;;;3.95;;
46487;SDS011;32202;48.780;9.204;2022-10-17T16:27:23;13.65;;;5.90;;
46487;SDS011;32202;48.780;9.204;2022-10-17T16:29:49;7.93;;;3.60;;
46487;SDS011;32202;48.780;9.204;2022-10-17T16:32:15;7.03;;;3.67;;
46487;SDS011;32202;48.780;9.204;2022-10-17T16:34:40;9.45;;;3.88;;
46487;SDS011;32202;48.780;9.204;2022-10-17T16:37:06;6.25;;;3.78;;
46487;SDS011;32202;48.780;9.204;2022-10-17T16:39:31;9.48;;;3.83;;
46487;SDS011;32202;48.780;9.204;2022-10-17T16:41:57;9.32;;;3.97;;
46487;SDS011;32202;48.780;9.204;2022-10-17T16:44:22;10.55;;;4.57;;
46487;SDS011;32202;48.780;9.204;2022-10-17T16:46:48;9.10;;;4.10;;
46487;SDS011;32202;48.780;9.204;2022-10-17T16:49:13;10.80;;;3.85;;
46487;SDS011;32202;48.780;9.204;2022-10-17T16:51:41;10.15;;;4.65;;
46487;SDS011;32202;48.780;9.204;2022-10-17T16:54:07;7.72;;;3.75;;
46487;SDS011;32202;48.780;9.204;2022-10-17T16:56:33;9.25;;;3.60;;
46487;SDS011;32202;48.780;9.204;2022-10-17T16:58:59;8.82;;;3.83;;
46487;SDS011;32202;48.780;9.204;2022-10-17T17:01:25;14.85;;;4.43;;
46487;SDS011;32202;48.780;9.204;2022-10-17T17:03:53;8.73;;;4.25;;
46487;SDS011;32202;48.780;9.204;2022-10-17T17:06:26;8.13;;;4.25;;
46487;SDS011;32202;48.780;9.204;2022-10-17T17:08:53;7.35;;;3.85;;